createdAt,value
2022-08-24T00:02:55.117Z,98641.25
2022-08-24T00:05:57.036Z,98627.16
2022-08-24T00:08:58.447Z,98633.53
2022-08-24T00:11:59.869Z,98635.25
2022-08-24T00:15:01.258Z,98636.22
2022-08-24T00:18:02.855Z,98633.59
2022-08-24T00:21:04.613Z,98637.38
2022-08-24T00:24:05.987Z,98637.31
2022-08-24T00:27:07.392Z,98630.34
2022-08-24T00:30:09.757Z,98634.91
2022-08-24T00:33:11.109Z,98630.84
2022-08-24T00:36:12.477Z,98637.09
2022-08-24T00:39:13.891Z,98627.38
2022-08-24T00:42:15.258Z,98628.47
2022-08-24T00:45:17.234Z,98628.28
2022-08-24T00:48:20.500Z,98633.81
2022-08-24T00:51:25.917Z,98634.75
2022-08-24T00:54:27.292Z,98624.50
2022-08-24T00:57:29.565Z,98627.16
2022-08-24T01:00:32.295Z,98628.03
2022-08-24T01:03:34.141Z,98632.38
2022-08-24T01:06:35.509Z,98628.78
2022-08-24T01:09:36.890Z,98633.25
2022-08-24T01:12:38.732Z,98636.84
2022-08-24T01:15:41.264Z,98631.47
2022-08-24T01:18:52.017Z,98635.81
2022-08-24T01:21:54.228Z,98621.97
2022-08-24T01:24:55.625Z,98630.03
2022-08-24T01:27:57.581Z,98625.69
2022-08-24T01:30:59.540Z,98625.81
2022-08-24T01:34:00.950Z,98628.22
2022-08-24T01:37:02.391Z,98616.13
2022-08-24T01:40:04.435Z,98618.88
2022-08-24T01:43:06.447Z,98618.94
2022-08-24T01:46:08.026Z,98617.16
2022-08-24T01:49:10.296Z,98617.28
2022-08-24T01:52:12.686Z,98612.16
2022-08-24T01:55:14.272Z,98619.34
2022-08-24T01:58:20.332Z,98620.16
2022-08-24T02:01:21.712Z,98617.66
2022-08-24T02:04:23.433Z,98616.84
2022-08-24T02:07:24.943Z,98617.03
2022-08-24T02:10:27.994Z,98626.59
2022-08-24T02:13:29.995Z,98630.97
2022-08-24T02:16:31.371Z,98628.44
2022-08-24T02:19:32.874Z,98633.88
2022-08-24T02:22:34.233Z,98639.13
2022-08-24T02:25:35.594Z,98641.75
2022-08-24T02:28:36.971Z,98637.31
2022-08-24T02:31:38.402Z,98637.13
2022-08-24T02:34:39.800Z,98646.13
2022-08-24T02:37:43.830Z,98645.44
2022-08-24T02:40:45.411Z,98654.31
2022-08-24T02:43:46.854Z,98649.19
2022-08-24T02:46:48.308Z,98639.69
2022-08-24T02:49:49.764Z,98649.06
2022-08-24T02:52:51.109Z,98646.56
2022-08-24T02:55:52.493Z,98644.13
2022-08-24T02:58:54.496Z,98637.13
2022-08-24T03:01:55.975Z,98638.88
2022-08-24T03:04:57.491Z,98642.44
2022-08-24T03:07:58.836Z,98635.53
2022-08-24T03:11:02.038Z,98626.91
2022-08-24T03:14:03.515Z,98633.00
2022-08-24T03:17:05.009Z,98631.41
2022-08-24T03:20:07.398Z,98637.53
2022-08-24T03:23:08.739Z,98634.91
2022-08-24T03:26:10.377Z,98642.69
2022-08-24T03:29:12.193Z,98635.84
2022-08-24T03:32:13.643Z,98634.94
2022-08-24T03:35:15.094Z,98641.91
2022-08-24T03:38:16.969Z,98633.25
2022-08-24T03:41:18.345Z,98635.09
2022-08-24T03:44:23.073Z,98629.91
2022-08-24T03:47:24.692Z,98630.81
2022-08-24T03:50:27.048Z,98631.72
2022-08-24T03:53:28.401Z,98629.19
2022-08-24T03:56:29.765Z,98626.53
2022-08-24T03:59:31.632Z,98630.06
2022-08-24T04:02:33.585Z,98631.00
2022-08-24T04:05:35.295Z,98629.31
2022-08-24T04:08:36.828Z,98626.81
2022-08-24T04:11:41.073Z,98631.03
2022-08-24T04:14:42.747Z,98625.00
2022-08-24T04:17:44.093Z,98631.03
2022-08-24T04:20:45.978Z,98623.28
2022-08-24T04:23:48.110Z,98634.66
2022-08-24T04:26:49.519Z,98637.97
2022-08-24T04:29:51.200Z,98638.75
2022-08-24T04:32:52.534Z,98632.75
2022-08-24T04:35:54.413Z,98639.81
2022-08-24T04:38:55.780Z,98639.91
2022-08-24T04:41:59.961Z,98646.88
2022-08-24T04:45:04.775Z,98647.81
2022-08-24T04:48:06.140Z,98660.97
2022-08-24T04:51:10.003Z,98656.59
2022-08-24T04:54:15.208Z,98654.66
2022-08-24T04:57:18.347Z,98661.75
2022-08-24T05:00:20.151Z,98669.78
2022-08-24T05:03:21.504Z,98662.69
2022-08-24T05:06:23.852Z,98667.13
2022-08-24T05:09:25.269Z,98675.84
2022-08-24T05:12:26.828Z,98665.28
2022-08-24T05:15:28.194Z,98668.78
2022-08-24T05:18:30.147Z,98671.34
2022-08-24T05:21:31.508Z,98673.94
2022-08-24T05:24:32.853Z,98673.94
2022-08-24T05:27:34.456Z,98677.41
2022-08-24T05:30:40.577Z,98677.28
2022-08-24T05:33:43.993Z,98681.53
2022-08-24T05:36:45.468Z,98678.72
2022-08-24T05:39:47.105Z,98687.31
2022-08-24T05:42:48.637Z,98681.97
2022-08-24T05:45:50.059Z,98680.94
2022-08-24T05:48:52.880Z,98681.69
2022-08-24T05:51:55.087Z,98677.97
2022-08-24T05:54:57.212Z,98679.50
2022-08-24T05:57:59.050Z,98681.91
2022-08-24T06:01:05.050Z,98685.22
2022-08-24T06:04:06.414Z,98684.06
2022-08-24T06:07:11.317Z,98687.34
2022-08-24T06:10:35.291Z,98673.91
2022-08-24T06:13:34.046Z,98682.50
2022-08-24T06:16:36.168Z,98681.38
2022-08-24T06:19:37.596Z,98672.34
2022-08-24T06:22:39.024Z,98671.22
2022-08-24T06:25:59.119Z,98678.84
2022-08-24T06:29:00.519Z,98670.66
2022-08-24T06:32:01.892Z,98666.81
2022-08-24T06:35:03.324Z,98666.50
2022-08-24T06:38:04.728Z,98674.16
2022-08-24T06:41:07.223Z,98673.91
2022-08-24T06:44:08.745Z,98674.44
2022-08-24T06:47:11.097Z,98669.72
2022-08-24T06:50:12.681Z,98672.88
2022-08-24T06:53:14.989Z,98671.63
2022-08-24T06:56:16.731Z,98672.06
2022-08-24T06:59:18.550Z,98672.56
2022-08-24T07:02:20.006Z,98673.09
2022-08-24T07:05:21.388Z,98677.94
2022-08-24T07:08:22.866Z,98673.75
2022-08-24T07:11:25.465Z,98679.13
2022-08-24T07:14:26.909Z,98670.69
2022-08-24T07:17:28.763Z,98665.03
2022-08-24T07:20:30.472Z,98674.09
2022-08-24T07:23:42.169Z,98671.63
2022-08-24T07:26:44.033Z,98662.97
2022-08-24T07:29:52.696Z,98671.78
2022-08-24T07:32:57.872Z,98670.22
2022-08-24T07:35:59.407Z,98665.16
2022-08-24T07:39:02.860Z,98670.41
2022-08-24T07:42:14.774Z,98663.16
2022-08-24T07:45:18.322Z,98666.88
2022-08-24T07:48:19.663Z,98668.56
2022-08-24T07:51:21.029Z,98661.06
2022-08-24T07:54:22.483Z,98669.19
2022-08-24T07:57:24.139Z,98654.31
2022-08-24T08:00:25.780Z,98646.09
2022-08-24T08:03:27.289Z,98658.81
2022-08-24T08:06:28.788Z,98642.06
2022-08-24T08:09:30.223Z,98646.38
2022-08-24T08:12:31.625Z,98649.94
2022-08-24T08:15:33.078Z,98637.59
2022-08-24T08:18:34.533Z,98629.13
2022-08-24T08:21:58.971Z,98616.72
2022-08-24T08:25:00.333Z,98616.22
2022-08-24T08:28:07.978Z,98606.28
2022-08-24T08:31:20.151Z,98603.44
2022-08-24T08:34:21.561Z,98571.50
2022-08-24T08:37:22.924Z,98541.72
2022-08-24T08:40:40.332Z,98545.19
2022-08-24T08:43:42.245Z,98551.38
2022-08-24T08:46:43.559Z,98548.19
2022-08-24T08:50:03.800Z,98542.31
2022-08-24T08:53:23.948Z,98533.09
2022-08-24T08:56:41.151Z,98538.28
2022-08-24T08:59:56.415Z,98526.44
2022-08-24T09:02:57.744Z,98522.72
2022-08-24T09:06:18.123Z,98521.81
2022-08-24T09:09:38.228Z,98517.66
2022-08-24T09:12:58.561Z,98525.03
2022-08-24T09:16:10.442Z,98526.59
2022-08-24T09:19:15.362Z,98519.03
2022-08-24T09:22:17.219Z,98511.38
2022-08-24T09:25:28.317Z,98504.97
2022-08-24T09:28:34.420Z,98523.72
2022-08-24T09:31:44.775Z,98524.75
2022-08-24T09:34:51.371Z,98512.53
2022-08-24T09:38:15.021Z,98525.47
2022-08-24T09:41:16.431Z,98530.28
2022-08-24T09:44:27.696Z,98523.31
2022-08-24T09:47:47.112Z,98520.09
2022-08-24T09:50:51.709Z,98518.03
2022-08-24T09:54:00.175Z,98518.25
2022-08-24T09:57:44.100Z,98515.22
2022-08-24T10:01:00.097Z,98511.78
2022-08-24T10:04:16.839Z,98507.41
2022-08-24T10:07:19.975Z,98496.16
2022-08-24T10:10:27.481Z,98497.19
2022-08-24T10:13:47.754Z,98506.53
2022-08-24T10:17:00.701Z,98509.31
2022-08-24T10:20:08.293Z,98517.25
2022-08-24T10:23:25.335Z,98496.34
2022-08-24T10:26:45.551Z,98478.31
2022-08-24T10:30:06.135Z,98492.53
2022-08-24T10:33:15.662Z,98474.91
2022-08-24T10:36:31.787Z,98485.84
2022-08-24T10:39:42.803Z,98468.22
2022-08-24T10:43:02.898Z,98493.59
2022-08-24T10:46:10.404Z,98473.06
2022-08-24T10:49:32.163Z,98471.50
2022-08-24T10:52:53.749Z,98471.53
2022-08-24T10:56:08.907Z,98465.84
2022-08-24T10:59:16.808Z,98459.47
2022-08-24T11:02:27.259Z,98457.81
2022-08-24T11:05:29.603Z,98453.53
2022-08-24T11:08:33.258Z,98463.00
2022-08-24T11:11:35.852Z,98461.06
2022-08-24T11:14:39.987Z,98449.47
2022-08-24T11:17:41.319Z,98421.31
2022-08-24T11:20:43.960Z,98429.38
2022-08-24T11:23:45.718Z,98420.13
2022-08-24T11:26:51.135Z,98417.91
2022-08-24T11:29:55.828Z,98420.84
2022-08-24T11:33:03.895Z,98436.50
2022-08-24T11:36:05.325Z,98439.69
2022-08-24T11:39:12.757Z,98428.81
2022-08-24T11:42:16.027Z,98421.16
2022-08-24T11:45:46.777Z,98420.34
2022-08-24T11:48:59.676Z,98408.84
2022-08-24T11:52:11.761Z,98411.22
2022-08-24T11:55:16.327Z,98428.31
2022-08-24T11:58:19.681Z,98420.97
2022-08-24T12:01:44.595Z,98402.44
2022-08-24T12:04:49.407Z,98419.44
2022-08-24T12:08:09.769Z,98405.28
2022-08-24T12:11:11.127Z,98401.44
2022-08-24T12:14:16.310Z,98408.69
2022-08-24T12:17:20.658Z,98402.97
2022-08-24T12:20:25.812Z,98413.88
2022-08-24T12:23:30.023Z,98404.31
2022-08-24T12:26:38.804Z,98377.19
2022-08-24T12:29:49.414Z,98381.69
2022-08-24T12:32:58.764Z,98398.47
2022-08-24T12:36:01.526Z,98392.06
2022-08-24T12:39:10.669Z,98385.13
2022-08-24T12:42:24.250Z,98378.00
2022-08-24T12:45:25.647Z,98378.78
2022-08-24T12:48:37.533Z,98378.22
2022-08-24T12:51:57.551Z,98373.88
2022-08-24T12:55:19.060Z,98379.81
2022-08-24T12:58:40.160Z,98381.34
2022-08-24T13:02:24.421Z,98393.03
2022-08-24T13:05:25.850Z,98368.06
2022-08-24T13:08:33.325Z,98378.19
2022-08-24T13:11:34.817Z,98379.63
2022-08-24T13:14:36.177Z,98351.50
2022-08-24T13:17:40.699Z,98354.13
2022-08-24T13:20:45.024Z,98328.78
2022-08-24T13:23:46.559Z,98363.09
2022-08-24T13:26:47.913Z,98359.56
2022-08-24T13:29:50.089Z,98343.97
2022-08-24T13:32:56.051Z,98346.13
2022-08-24T13:35:58.701Z,98348.81
2022-08-24T13:39:10.001Z,98336.41
2022-08-24T13:42:15.436Z,98333.19
2022-08-24T13:45:35.747Z,98330.75
2022-08-24T13:48:40.088Z,98326.91
2022-08-24T13:51:42.630Z,98299.53
2022-08-24T13:54:54.572Z,98317.72
2022-08-24T13:58:14.658Z,98341.91
2022-08-24T14:01:21.981Z,98320.41
2022-08-24T14:04:26.789Z,98337.50
2022-08-24T14:07:34.468Z,98342.03
2022-08-24T14:10:53.599Z,98326.03
2022-08-24T14:13:58.239Z,98336.50
2022-08-24T14:17:35.673Z,98328.97
2022-08-24T14:20:40.372Z,98319.47
2022-08-24T14:23:45.518Z,98335.41
2022-08-24T14:26:52.320Z,98327.94
2022-08-24T14:29:54.684Z,98345.94
2022-08-24T14:32:59.089Z,98361.63
2022-08-24T14:36:08.476Z,98342.88
2022-08-24T14:39:12.616Z,98331.06
2022-08-24T14:42:34.045Z,98336.22
2022-08-24T14:45:55.958Z,98331.53
2022-08-24T14:49:13.928Z,98326.13
2022-08-24T14:52:22.296Z,98329.88
2022-08-24T14:55:29.577Z,98329.44
2022-08-24T14:58:40.253Z,98322.75
2022-08-24T15:01:45.277Z,98337.06
2022-08-24T15:04:58.547Z,98309.66
2022-08-24T15:08:00.160Z,98313.38
2022-08-24T15:11:02.356Z,98318.03
2022-08-24T15:14:05.011Z,98318.09
2022-08-24T15:17:10.250Z,98329.69
2022-08-24T15:20:19.716Z,98317.38
2022-08-24T15:23:21.024Z,98327.13
2022-08-24T15:26:22.363Z,98317.31
2022-08-24T15:29:24.935Z,98315.38
2022-08-24T15:32:40.736Z,98314.31
2022-08-24T15:35:50.316Z,98318.44
2022-08-24T15:38:51.763Z,98309.53
2022-08-24T15:41:53.198Z,98315.66
2022-08-24T15:44:54.686Z,98317.31
2022-08-24T15:47:56.038Z,98305.97
2022-08-24T15:50:57.474Z,98323.47
2022-08-24T15:53:58.845Z,98324.47
2022-08-24T15:57:00.732Z,98316.94
2022-08-24T16:00:13.028Z,98319.63
2022-08-24T16:03:21.564Z,98326.88
2022-08-24T16:06:26.174Z,98328.16
2022-08-24T16:09:30.517Z,98311.69
2022-08-24T16:12:32.761Z,98332.00
2022-08-24T16:15:34.223Z,98313.50
2022-08-24T16:18:53.179Z,98332.53
2022-08-24T16:21:58.531Z,98339.75
2022-08-24T16:25:15.190Z,98336.91
2022-08-24T16:28:19.619Z,98324.38
2022-08-24T16:31:57.244Z,98342.56
2022-08-24T16:35:01.520Z,98330.50
2022-08-24T16:38:04.043Z,98344.09
2022-08-24T16:41:07.064Z,98328.28
2022-08-24T16:44:10.700Z,98330.41
2022-08-24T16:47:12.158Z,98343.59
2022-08-24T16:50:14.870Z,98343.00
2022-08-24T16:53:16.290Z,98354.63
2022-08-24T16:56:17.660Z,98337.53
2022-08-24T16:59:26.257Z,98343.59
2022-08-24T17:02:27.678Z,98342.16
2022-08-24T17:05:29.663Z,98363.19
2022-08-24T17:08:30.991Z,98351.13
2022-08-24T17:11:33.199Z,98362.94
2022-08-24T17:14:35.007Z,98360.44
2022-08-24T17:17:37.127Z,98370.53
2022-08-24T17:20:38.498Z,98371.03
2022-08-24T17:23:40.229Z,98365.03
2022-08-24T17:26:48.601Z,98373.34
2022-08-24T17:29:50.199Z,98373.03
2022-08-24T17:32:52.454Z,98376.84
2022-08-24T17:35:54.251Z,98374.53
2022-08-24T17:38:56.288Z,98386.28
2022-08-24T17:41:58.387Z,98390.72
2022-08-24T17:45:00.486Z,98399.88
2022-08-24T17:48:01.955Z,98402.53
2022-08-24T17:51:03.374Z,98409.16
2022-08-24T17:54:04.711Z,98410.97
2022-08-24T17:57:06.080Z,98410.34
2022-08-24T18:00:08.055Z,98423.75
2022-08-24T18:03:12.274Z,98424.78
2022-08-24T18:06:17.950Z,98447.81
2022-08-24T18:09:22.162Z,98445.53
2022-08-24T18:12:24.206Z,98464.69
2022-08-24T18:15:34.851Z,98472.84
2022-08-24T18:18:37.429Z,98486.63
2022-08-24T18:21:39.205Z,98488.00
2022-08-24T18:24:41.306Z,98510.28
2022-08-24T18:27:42.640Z,98516.97
2022-08-24T18:30:44.743Z,98516.84
2022-08-24T18:33:46.082Z,98531.66
2022-08-24T18:36:47.668Z,98529.88
2022-08-24T18:39:49.134Z,98542.53
2022-08-24T18:42:50.917Z,98539.50
2022-08-24T18:45:53.320Z,98547.53
2022-08-24T18:48:54.740Z,98566.34
2022-08-24T18:51:59.952Z,98568.06
2022-08-24T18:55:01.386Z,98571.50
2022-08-24T18:58:03.145Z,98568.03
2022-08-24T19:01:04.634Z,98569.81
2022-08-24T19:04:12.043Z,98580.25
2022-08-24T19:07:15.611Z,98583.75
2022-08-24T19:10:21.106Z,98569.59
2022-08-24T19:13:22.555Z,98585.63
2022-08-24T19:16:23.931Z,98565.34
2022-08-24T19:19:25.392Z,98561.81
2022-08-24T19:22:26.742Z,98569.22
2022-08-24T19:25:28.136Z,98568.28
2022-08-24T19:28:29.508Z,98563.69
2022-08-24T19:31:31.551Z,98566.03
2022-08-24T19:34:33.575Z,98565.78
2022-08-24T19:37:34.915Z,98567.25
2022-08-24T19:40:36.252Z,98574.94
2022-08-24T19:44:00.562Z,98564.00
2022-08-24T19:47:02.267Z,98573.97
2022-08-24T19:50:04.206Z,98575.63
2022-08-24T19:53:05.954Z,98574.53
2022-08-24T19:56:07.494Z,98572.25
2022-08-24T19:59:17.967Z,98565.47
2022-08-24T20:02:19.388Z,98568.50
2022-08-24T20:05:21.249Z,98574.19
2022-08-24T20:08:22.692Z,98575.44
2022-08-24T20:11:25.207Z,98573.94
2022-08-24T20:14:26.857Z,98577.00
2022-08-24T20:17:28.675Z,98575.47
2022-08-24T20:20:30.328Z,98566.34
2022-08-24T20:23:31.799Z,98570.09
2022-08-24T20:26:34.986Z,98572.78
2022-08-24T20:29:36.352Z,98575.91
2022-08-24T20:32:37.698Z,98575.72
2022-08-24T20:35:39.037Z,98579.53
2022-08-24T20:38:40.415Z,98591.59
2022-08-24T20:41:42.756Z,98587.88
2022-08-24T20:44:44.558Z,98582.72
2022-08-24T20:47:47.315Z,98587.09
2022-08-24T20:50:49.294Z,98585.09
2022-08-24T20:53:50.668Z,98586.63
2022-08-24T20:56:52.019Z,98581.22
2022-08-24T20:59:53.372Z,98572.81
2022-08-24T21:02:54.757Z,98573.91
2022-08-24T21:05:56.142Z,98583.94
2022-08-24T21:08:57.481Z,98581.63
2022-08-24T21:11:59.057Z,98577.72
2022-08-24T21:15:00.407Z,98573.41
2022-08-24T21:18:02.940Z,98566.44
2022-08-24T21:21:04.869Z,98570.81
2022-08-24T21:24:07.354Z,98574.31
2022-08-24T21:27:09.031Z,98566.38
2022-08-24T21:30:11.233Z,98560.16
2022-08-24T21:33:31.351Z,98573.66
2022-08-24T21:36:32.698Z,98583.75
2022-08-24T21:39:34.576Z,98585.88
2022-08-24T21:42:36.679Z,98580.38
2022-08-24T21:45:39.107Z,98587.75
2022-08-24T21:48:40.451Z,98580.38
2022-08-24T21:51:41.797Z,98580.44
2022-08-24T21:54:43.175Z,98587.69
2022-08-24T21:57:44.518Z,98579.19
2022-08-24T22:00:45.936Z,98581.47
2022-08-24T22:03:47.523Z,98580.38
2022-08-24T22:06:49.821Z,98576.88
2022-08-24T22:09:51.159Z,98585.97
2022-08-24T22:12:52.923Z,98579.91
2022-08-24T22:15:54.373Z,98572.41
2022-08-24T22:18:55.819Z,98576.09
2022-08-24T22:21:58.217Z,98575.16
2022-08-24T22:24:59.650Z,98568.44
2022-08-24T22:28:01.005Z,98564.88
2022-08-24T22:31:02.524Z,98572.13
2022-08-24T22:34:05.141Z,98563.41
2022-08-24T22:37:06.471Z,98573.25
2022-08-24T22:40:12.482Z,98571.06
2022-08-24T22:43:14.344Z,98563.50
2022-08-24T22:46:15.731Z,98565.03
2022-08-24T22:49:17.414Z,98561.88
2022-08-24T22:52:18.779Z,98559.28
2022-08-24T22:55:20.165Z,98563.19
2022-08-24T22:58:24.787Z,98553.66
2022-08-24T23:01:27.512Z,98554.28
2022-08-24T23:04:31.948Z,98549.03
2022-08-24T23:07:35.313Z,98554.69
2022-08-24T23:10:36.668Z,98555.53
2022-08-24T23:13:38.081Z,98549.19
2022-08-24T23:16:40.299Z,98550.06
2022-08-24T23:20:00.385Z,98553.00
2022-08-24T23:23:01.806Z,98544.94
2022-08-24T23:26:03.963Z,98544.97
2022-08-24T23:29:06.192Z,98539.38
2022-08-24T23:32:07.715Z,98537.97
2022-08-24T23:35:09.170Z,98543.50
2022-08-24T23:38:10.545Z,98532.75
2022-08-24T23:41:13.066Z,98538.81
2022-08-24T23:44:18.984Z,98526.94
2022-08-24T23:47:20.972Z,98527.97
2022-08-24T23:50:22.335Z,98523.56
2022-08-24T23:53:24.219Z,98524.44
2022-08-24T23:56:31.722Z,98516.56
2022-08-24T23:59:33.591Z,98517.59
